Time;durP1;ratioP1;P1;durP2;ratioP2;P2;SDS_P1;SDS_P2;PMS_P1;PMS_P2;Temp;Humidity;BMP_temperature;BMP_pressure;BME280_temperature;BME280_humidity;BME280_pressure;Samples;Min_cycle;Max_cycle;Signal;HPM_P1;HPM_P2
2023/01/05 00:01:38;;;;;;;10.13;2.80;;;12.10;99.90;;;;;;5072829;28;20789;-73
2023/01/05 00:04:07;;;;;;;3.03;2.53;;;12.00;99.90;;;;;;5085624;28;20487;-74
2023/01/05 00:06:38;;;;;;;5.63;2.37;;;12.00;99.90;;;;;;5080692;28;20463;-73
2023/01/05 00:09:07;;;;;;;10.63;4.13;;;12.00;99.90;;;;;;5083287;28;20476;-74
2023/01/05 00:22:44;;;;;;;17.77;2.70;;;12.00;99.90;;;;;;5099014;28;20483;-74
2023/01/05 00:25:15;;;;;;;1.60;1.50;;;12.00;99.90;;;;;;5082205;28;20542;-74
2023/01/05 00:27:44;;;;;;;8.97;2.40;;;11.90;99.90;;;;;;5090865;28;20845;-74
2023/01/05 00:30:13;;;;;;;2.80;1.77;;;12.00;99.90;;;;;;5092432;28;20465;-74
2023/01/05 00:32:41;;;;;;;9.33;2.03;;;11.90;99.90;;;;;;5082756;28;20487;-74
2023/01/05 00:35:09;;;;;;;6.23;2.67;;;11.90;99.90;;;;;;5090151;28;20499;-74
2023/01/05 00:37:37;;;;;;;5.90;1.67;;;11.90;99.90;;;;;;5090989;28;20519;-74
2023/01/05 00:40:05;;;;;;;8.53;3.30;;;11.90;99.90;;;;;;5088565;28;20468;-74
2023/01/05 00:42:36;;;;;;;4.57;2.37;;;11.90;99.90;;;;;;5082251;28;20485;-74
2023/01/05 00:45:04;;;;;;;20.10;2.53;;;11.90;99.90;;;;;;5089303;28;20853;-74
2023/01/05 00:47:30;;;;;;;6.73;3.80;;;11.90;99.90;;;;;;5084992;28;20505;-73
2023/01/05 00:49:57;;;;;;;6.33;2.30;;;11.80;99.90;;;;;;5085271;28;20881;-74
2023/01/05 00:52:25;;;;;;;5.10;2.67;;;11.80;99.90;;;;;;5088012;28;20828;-73
2023/01/05 00:54:52;;;;;;;6.40;2.10;;;11.70;99.90;;;;;;5086858;28;21064;-74
2023/01/05 00:57:19;;;;;;;9.60;2.70;;;11.70;99.90;;;;;;5083848;28;20483;-73
2023/01/05 00:59:47;;;;;;;7.57;2.03;;;11.60;99.90;;;;;;5063963;28;20491;-75
2023/01/05 01:02:14;;;;;;;8.20;2.30;;;11.60;99.90;;;;;;5085779;28;20569;-73
2023/01/05 01:04:41;;;;;;;9.13;2.80;;;11.60;99.90;;;;;;5075376;28;20476;-74
2023/01/05 01:07:08;;;;;;;7.60;2.50;;;11.60;99.90;;;;;;5085028;28;21048;-74
2023/01/05 01:09:36;;;;;;;8.17;2.43;;;11.70;99.90;;;;;;5084637;28;20550;-72
2023/01/05 01:12:04;;;;;;;5.20;2.50;;;11.60;99.90;;;;;;5092065;28;20485;-73
2023/01/05 01:14:31;;;;;;;6.20;2.50;;;11.60;99.90;;;;;;5082184;28;20459;-73
2023/01/05 01:16:59;;;;;;;7.90;2.80;;;11.60;99.90;;;;;;5090694;28;20458;-73
2023/01/05 01:19:27;;;;;;;7.30;2.40;;;11.60;99.90;;;;;;5088378;28;20784;-73
2023/01/05 01:21:55;;;;;;;12.23;2.63;;;11.60;99.90;;;;;;5087727;28;20543;-72
2023/01/05 01:24:24;;;;;;;4.43;2.03;;;11.50;99.90;;;;;;5097944;28;20480;-73
2023/01/05 01:26:54;;;;;;;11.50;2.50;;;11.50;99.90;;;;;;5087209;28;20519;-72
2023/01/05 01:29:25;;;;;;;17.33;4.10;;;11.40;99.90;;;;;;5084989;28;20453;-73
2023/01/05 01:31:53;;;;;;;7.50;2.40;;;11.40;99.90;;;;;;5081194;28;20551;-73
2023/01/05 01:34:22;;;;;;;3.40;2.20;;;11.40;99.90;;;;;;5083768;28;20463;-73
2023/01/05 01:36:49;;;;;;;5.73;2.77;;;11.40;99.90;;;;;;5090311;28;20545;-73
2023/01/05 01:39:16;;;;;;;6.30;3.63;;;11.40;99.90;;;;;;5087544;28;20564;-73
2023/01/05 01:41:43;;;;;;;10.20;2.70;;;11.40;99.90;;;;;;5087862;28;20542;-73
2023/01/05 01:44:48;;;;;;;3.13;1.93;;;11.50;99.90;;;;;;5085083;28;20518;-72
2023/01/05 01:47:21;;;;;;;15.00;3.43;;;11.40;99.90;;;;;;5089827;28;20475;-73
2023/01/05 01:49:51;;;;;;;7.43;2.70;;;11.40;99.90;;;;;;5084991;28;20826;-73
2023/01/05 01:52:21;;;;;;;10.13;2.20;;;11.50;99.90;;;;;;5082217;28;20769;-72
2023/01/05 01:54:49;;;;;;;3.03;2.33;;;11.50;99.90;;;;;;5081783;28;20541;-73
2023/01/05 01:57:16;;;;;;;12.73;3.03;;;11.50;99.90;;;;;;5085511;28;20850;-73
2023/01/05 01:59:45;;;;;;;11.33;5.10;;;11.50;99.90;;;;;;5061567;28;20466;-74
2023/01/05 02:02:13;;;;;;;16.43;2.87;;;11.50;99.90;;;;;;5071444;28;20980;-73
2023/01/05 02:04:48;;;;;;;5.33;2.90;;;11.50;99.90;;;;;;5078030;28;20472;-74
2023/01/05 02:07:16;;;;;;;3.83;2.10;;;11.50;99.90;;;;;;5084215;28;20475;-74
2023/01/05 02:09:44;;;;;;;20.40;2.73;;;11.50;99.90;;;;;;5084563;28;20559;-74
2023/01/05 02:12:22;;;;;;;5.50;2.47;;;11.50;99.90;;;;;;5088888;28;20469;-74
2023/01/05 02:14:59;;;;;;;8.57;3.47;;;11.60;99.90;;;;;;5091225;28;20949;-73
2023/01/05 02:17:33;;;;;;;2.50;1.83;;;11.50;99.90;;;;;;5086568;28;20462;-74
2023/01/05 02:20:37;;;;;;;17.63;4.20;;;11.50;99.90;;;;;;5083810;28;20520;-75
2023/01/05 02:23:33;;;;;;;2.70;2.17;;;11.60;99.90;;;;;;5089926;28;20604;-75
2023/01/05 02:26:24;;;;;;;5.43;2.20;;;11.50;99.90;;;;;;5077417;28;20459;-74
2023/01/05 02:29:16;;;;;;;3.70;1.63;;;11.60;99.90;;;;;;5082454;28;20580;-75
2023/01/05 02:31:48;;;;;;;13.73;3.27;;;11.50;99.90;;;;;;5061059;28;20521;-74
2023/01/05 02:34:25;;;;;;;18.03;2.57;;;11.50;99.90;;;;;;5078934;28;20804;-75
2023/01/05 02:36:56;;;;;;;2.80;1.57;;;11.50;99.90;;;;;;5080844;28;20471;-73
2023/01/05 02:39:28;;;;;;;5.03;2.10;;;11.50;99.90;;;;;;5077007;28;20482;-73
2023/01/05 02:41:59;;;;;;;5.13;2.83;;;11.50;99.90;;;;;;5081788;28;20452;-75
2023/01/05 02:44:29;;;;;;;5.40;1.80;;;11.40;99.90;;;;;;5078473;28;20607;-73
2023/01/05 02:47:02;;;;;;;4.07;1.87;;;11.40;99.90;;;;;;5077311;28;20521;-75
2023/01/05 02:49:31;;;;;;;6.47;3.60;;;11.40;99.90;;;;;;5077485;28;20461;-74
2023/01/05 02:52:02;;;;;;;5.10;3.57;;;11.30;99.90;;;;;;5076134;28;20850;-73
2023/01/05 02:54:38;;;;;;;5.07;2.20;;;11.40;99.90;;;;;;5078066;28;20936;-75
2023/01/05 02:57:10;;;;;;;6.73;2.37;;;11.40;99.90;;;;;;5083511;28;20491;-73
2023/01/05 02:59:41;;;;;;;8.73;2.10;;;11.40;99.90;;;;;;5079757;28;20467;-73
2023/01/05 03:02:18;;;;;;;10.33;1.73;;;11.40;99.90;;;;;;5078689;28;20832;-73
2023/01/05 03:04:52;;;;;;;3.17;1.77;;;11.40;99.90;;;;;;5083286;28;20468;-72
2023/01/05 03:07:26;;;;;;;1.80;1.53;;;11.40;99.90;;;;;;5081512;28;20476;-73
2023/01/05 03:09:54;;;;;;;9.23;3.60;;;11.40;99.90;;;;;;5080417;28;20464;-72
2023/01/05 03:15:18;;;;;;;5.93;1.93;;;11.30;99.90;;;;;;5094036;28;20986;-73
2023/01/05 03:17:49;;;;;;;11.83;2.60;;;11.40;99.90;;;;;;5087220;28;20891;-72
2023/01/05 03:20:20;;;;;;;4.00;2.90;;;11.40;99.90;;;;;;5085609;28;20460;-74
2023/01/05 03:37:01;;;;;;;6.10;1.80;;;11.30;99.90;;;;;;5087928;28;20451;-74
2023/01/05 03:39:31;;;;;;;5.00;1.90;;;11.30;99.90;;;;;;5086252;28;20471;-74
2023/01/05 03:41:59;;;;;;;7.63;2.77;;;11.30;99.90;;;;;;5082822;28;20657;-74
2023/01/05 03:44:26;;;;;;;12.20;3.40;;;11.20;99.90;;;;;;5074958;28;21091;-74
2023/01/05 03:46:53;;;;;;;10.67;3.30;;;11.10;99.90;;;;;;5082004;28;20546;-75
2023/01/05 03:49:21;;;;;;;7.97;3.83;;;11.10;99.90;;;;;;5079075;28;20459;-74
2023/01/05 03:51:48;;;;;;;7.47;3.13;;;11.10;99.90;;;;;;5083104;28;20452;-74
2023/01/05 03:54:15;;;;;;;10.53;3.53;;;11.10;99.90;;;;;;5048558;28;20484;-75
2023/01/05 03:56:42;;;;;;;5.07;2.60;;;11.10;99.90;;;;;;5077966;28;20461;-75
2023/01/05 03:59:09;;;;;;;6.30;3.57;;;11.20;99.90;;;;;;5075915;28;20621;-74
2023/01/05 04:01:35;;;;;;;5.90;2.30;;;11.10;99.90;;;;;;5078097;28;20559;-74
2023/01/05 04:04:02;;;;;;;6.60;2.87;;;11.10;99.90;;;;;;5078490;28;20483;-74
2023/01/05 04:06:33;;;;;;;7.50;2.30;;;11.10;99.90;;;;;;5080994;28;20473;-75
2023/01/05 04:09:00;;;;;;;4.57;2.30;;;11.10;99.90;;;;;;5085717;28;20497;-73
2023/01/05 04:11:27;;;;;;;5.23;2.70;;;11.10;99.90;;;;;;5084876;28;20471;-73
2023/01/05 04:13:54;;;;;;;7.40;2.67;;;11.00;99.90;;;;;;5079226;28;20463;-74
2023/01/05 04:16:22;;;;;;;6.73;2.57;;;11.00;99.90;;;;;;5085984;28;20531;-74
2023/01/05 04:18:50;;;;;;;11.40;2.80;;;10.90;99.90;;;;;;5085286;28;21005;-75
2023/01/05 04:21:16;;;;;;;8.40;3.03;;;10.90;99.90;;;;;;5077831;28;20532;-74
2023/01/05 04:23:45;;;;;;;6.40;3.63;;;11.00;99.90;;;;;;5084581;28;20506;-74
2023/01/05 04:26:12;;;;;;;8.33;2.90;;;11.00;99.90;;;;;;5098207;28;20495;-72
2023/01/05 04:28:40;;;;;;;5.83;2.03;;;11.00;99.90;;;;;;5076715;28;20475;-75
2023/01/05 04:31:07;;;;;;;9.40;4.20;;;11.00;99.90;;;;;;5076326;28;20470;-74
2023/01/05 04:33:34;;;;;;;6.47;3.30;;;10.90;99.90;;;;;;5078479;28;20459;-72
2023/01/05 04:36:01;;;;;;;10.80;3.27;;;11.00;99.90;;;;;;5077886;28;20855;-72
2023/01/05 04:38:27;;;;;;;5.00;2.20;;;10.90;99.90;;;;;;5075623;28;20459;-73
2023/01/05 04:40:56;;;;;;;10.50;2.83;;;10.90;99.90;;;;;;5091223;28;20910;-73
2023/01/05 04:43:22;;;;;;;6.40;2.70;;;10.90;99.90;;;;;;5081310;28;20793;-72
2023/01/05 04:45:50;;;;;;;6.20;2.67;;;10.90;99.90;;;;;;5083852;28;20907;-73
2023/01/05 04:48:17;;;;;;;14.63;3.17;;;10.90;99.90;;;;;;5082023;28;21209;-73
2023/01/05 04:50:44;;;;;;;8.77;2.30;;;10.80;99.90;;;;;;5081296;28;20849;-73
2023/01/05 04:53:11;;;;;;;12.93;2.90;;;10.80;99.90;;;;;;5084311;28;20463;-74
2023/01/05 04:55:38;;;;;;;5.83;3.10;;;10.80;99.90;;;;;;5083008;28;20466;-74
2023/01/05 04:58:06;;;;;;;8.40;3.40;;;10.80;99.90;;;;;;5048023;28;20523;-74
2023/01/05 05:00:36;;;;;;;6.43;2.50;;;10.80;99.90;;;;;;5081952;28;20913;-73
2023/01/05 05:03:06;;;;;;;11.90;4.07;;;10.80;99.90;;;;;;5046123;28;20479;-73
2023/01/05 05:05:33;;;;;;;5.20;2.60;;;10.80;99.90;;;;;;5085591;28;20521;-73
2023/01/05 05:08:00;;;;;;;9.67;2.50;;;10.90;99.90;;;;;;5083543;28;20571;-73
2023/01/05 05:10:26;;;;;;;22.73;4.30;;;10.80;99.90;;;;;;5088080;28;20455;-73
2023/01/05 05:12:53;;;;;;;5.00;2.33;;;10.80;99.90;;;;;;5087173;28;20550;-73
2023/01/05 05:15:21;;;;;;;7.13;2.33;;;10.80;99.90;;;;;;5089442;28;20455;-73
2023/01/05 05:17:51;;;;;;;8.97;4.30;;;10.80;99.90;;;;;;5087987;28;20485;-71
2023/01/05 05:20:19;;;;;;;12.70;4.57;;;10.80;99.90;;;;;;5087890;28;20463;-74
2023/01/05 05:22:46;;;;;;;5.03;1.90;;;10.80;99.90;;;;;;5067513;28;20973;-73
2023/01/05 05:25:12;;;;;;;7.90;3.27;;;10.80;99.90;;;;;;5100734;28;20462;-72
2023/01/05 05:27:39;;;;;;;12.13;3.17;;;10.80;99.90;;;;;;5093515;28;20487;-73
2023/01/05 05:30:08;;;;;;;11.40;4.00;;;10.90;99.90;;;;;;5095167;28;20460;-73
2023/01/05 05:32:36;;;;;;;10.47;4.50;;;10.90;99.90;;;;;;5087352;28;20462;-73
2023/01/05 05:35:03;;;;;;;5.23;2.60;;;10.90;99.90;;;;;;5079647;28;20557;-72
2023/01/05 05:37:30;;;;;;;5.20;3.00;;;10.90;99.90;;;;;;5087339;28;20609;-73
2023/01/05 05:39:57;;;;;;;11.40;3.67;;;10.90;99.90;;;;;;5086502;28;20447;-73
2023/01/05 05:42:24;;;;;;;10.07;2.40;;;10.80;99.90;;;;;;5086333;28;20574;-73
2023/01/05 05:44:51;;;;;;;11.80;3.70;;;10.80;99.90;;;;;;5085027;28;20487;-73
2023/01/05 05:47:18;;;;;;;8.53;4.20;;;10.80;99.90;;;;;;5083597;28;21000;-73
2023/01/05 05:49:46;;;;;;;11.90;3.67;;;10.80;99.90;;;;;;5089238;28;20526;-73
2023/01/05 05:52:13;;;;;;;6.90;2.10;;;10.80;99.90;;;;;;5088353;28;20961;-73
2023/01/05 05:54:40;;;;;;;8.10;2.90;;;10.90;99.90;;;;;;5086303;28;20949;-73
2023/01/05 05:57:07;;;;;;;3.37;2.37;;;10.80;99.90;;;;;;5087707;28;20558;-73
2023/01/05 05:59:35;;;;;;;8.53;2.30;;;10.80;99.90;;;;;;5094752;28;20884;-73
2023/01/05 06:02:01;;;;;;;9.57;2.53;;;10.80;99.90;;;;;;5092501;28;20482;-73
2023/01/05 06:04:29;;;;;;;4.53;2.63;;;10.80;99.90;;;;;;5101388;28;20541;-73
2023/01/05 06:06:57;;;;;;;12.43;3.23;;;10.80;99.90;;;;;;5095107;28;20454;-73
2023/01/05 06:09:24;;;;;;;6.13;2.57;;;10.80;99.90;;;;;;5085234;28;20455;-73
2023/01/05 06:11:51;;;;;;;22.83;3.70;;;10.80;99.90;;;;;;5090587;28;20474;-73
2023/01/05 06:14:18;;;;;;;4.33;2.60;;;10.70;99.90;;;;;;5087065;28;20463;-73
2023/01/05 06:16:45;;;;;;;10.00;4.23;;;10.70;99.90;;;;;;5080615;28;20842;-72
2023/01/05 06:19:12;;;;;;;2.70;2.50;;;10.60;99.90;;;;;;5082864;28;20493;-73
2023/01/05 06:21:39;;;;;;;6.30;3.20;;;10.60;99.90;;;;;;5087433;28;20890;-72
2023/01/05 06:24:08;;;;;;;6.33;2.67;;;10.50;99.90;;;;;;5100117;28;20478;-72
2023/01/05 06:26:35;;;;;;;7.80;2.90;;;10.50;99.90;;;;;;5098573;28;20467;-73
2023/01/05 06:29:02;;;;;;;19.63;3.43;;;10.60;99.90;;;;;;5086218;28;20561;-72
2023/01/05 06:31:29;;;;;;;7.50;2.57;;;10.70;99.90;;;;;;5088246;28;20442;-73
2023/01/05 06:33:56;;;;;;;33.03;4.60;;;10.70;99.90;;;;;;5089563;28;20455;-73
2023/01/05 06:36:22;;;;;;;7.83;4.70;;;10.60;99.90;;;;;;5082160;28;20988;-74
2023/01/05 06:38:49;;;;;;;9.07;3.30;;;10.70;99.90;;;;;;5089298;28;20531;-73
2023/01/05 06:41:17;;;;;;;12.87;4.50;;;10.60;99.90;;;;;;5090471;28;20463;-73
2023/01/05 06:43:44;;;;;;;16.70;2.80;;;10.70;99.90;;;;;;5089777;28;20470;-73
2023/01/05 06:46:11;;;;;;;12.40;3.30;;;10.60;99.90;;;;;;5084779;28;20759;-73
2023/01/05 06:48:38;;;;;;;17.83;4.13;;;10.50;99.90;;;;;;5091519;28;20494;-73
2023/01/05 06:51:06;;;;;;;13.20;4.20;;;10.60;99.90;;;;;;5053064;28;20451;-72
2023/01/05 06:53:33;;;;;;;4.53;2.67;;;10.50;99.90;;;;;;5090007;28;20541;-73
2023/01/05 06:56:00;;;;;;;13.93;4.30;;;10.50;99.90;;;;;;5095956;28;21000;-73
2023/01/05 06:58:28;;;;;;;8.90;3.10;;;10.50;99.90;;;;;;5091171;28;20494;-73
2023/01/05 07:00:55;;;;;;;12.33;3.70;;;10.50;99.90;;;;;;5080094;28;20892;-73
2023/01/05 07:03:23;;;;;;;8.37;4.33;;;10.50;99.90;;;;;;5089673;28;20476;-73
2023/01/05 07:05:51;;;;;;;7.13;3.80;;;10.60;99.90;;;;;;5083590;28;20497;-73
2023/01/05 07:08:18;;;;;;;7.07;4.53;;;10.60;99.90;;;;;;5087664;28;20660;-73
2023/01/05 07:10:45;;;;;;;18.53;6.53;;;10.70;99.90;;;;;;5081436;28;20524;-73
2023/01/05 07:13:12;;;;;;;6.17;3.90;;;10.70;99.90;;;;;;5081149;28;20495;-73
2023/01/05 07:15:40;;;;;;;5.83;5.10;;;10.70;99.90;;;;;;5079749;28;20463;-73
2023/01/05 07:18:07;;;;;;;9.73;4.07;;;10.70;99.90;;;;;;5083190;28;20529;-73
2023/01/05 07:20:34;;;;;;;10.93;2.83;;;10.60;99.90;;;;;;5088406;28;20605;-73
2023/01/05 07:23:01;;;;;;;10.87;5.50;;;10.60;99.90;;;;;;5088418;28;20451;-73
2023/01/05 07:25:30;;;;;;;6.80;4.03;;;10.60;99.90;;;;;;5095501;28;20455;-74
2023/01/05 07:27:57;;;;;;;9.40;4.40;;;10.60;99.90;;;;;;5098716;28;20523;-75
2023/01/05 07:30:24;;;;;;;17.27;5.37;;;10.60;99.90;;;;;;5095420;28;20552;-72
2023/01/05 07:32:53;;;;;;;9.40;5.10;;;10.60;99.90;;;;;;5089205;28;20508;-73
2023/01/05 07:35:19;;;;;;;15.80;5.77;;;10.70;99.90;;;;;;5091374;28;20953;-73
2023/01/05 07:37:46;;;;;;;9.40;5.87;;;10.60;99.90;;;;;;5089967;28;20493;-72
2023/01/05 07:40:13;;;;;;;12.83;4.97;;;10.60;99.90;;;;;;5094169;28;20467;-73
2023/01/05 07:42:41;;;;;;;21.90;5.90;;;10.60;99.90;;;;;;5094807;28;20467;-73
2023/01/05 07:45:09;;;;;;;15.97;4.80;;;10.70;99.90;;;;;;5087605;28;20489;-72
2023/01/05 07:47:40;;;;;;;11.23;4.37;;;10.70;99.90;;;;;;5087050;28;21183;-72
2023/01/05 07:50:09;;;;;;;12.77;6.07;;;10.70;99.90;;;;;;5084886;28;20820;-71
2023/01/05 07:52:38;;;;;;;9.63;5.00;;;10.60;99.90;;;;;;5087088;28;20466;-72
2023/01/05 07:55:05;;;;;;;15.80;6.93;;;10.60;99.90;;;;;;5087858;28;20810;-73
2023/01/05 07:57:32;;;;;;;16.33;5.83;;;10.70;99.90;;;;;;5088490;28;20479;-72
2023/01/05 07:59:59;;;;;;;6.47;4.83;;;10.70;99.90;;;;;;5083836;28;20550;-72
2023/01/05 08:02:26;;;;;;;15.33;5.57;;;10.80;99.90;;;;;;5044177;28;20447;-73
2023/01/05 08:04:54;;;;;;;8.83;3.70;;;10.70;99.90;;;;;;5081385;28;20554;-73
2023/01/05 08:07:22;;;;;;;12.80;5.43;;;10.70;99.90;;;;;;5083802;28;20838;-73
2023/01/05 08:13:58;;;;;;;12.10;6.00;;;10.70;99.90;;;;;;5086286;28;20897;-72
2023/01/05 08:15:21;;;;;;;10.67;4.23;;;10.60;99.90;;;;;;5077398;28;20439;-72
2023/01/05 08:17:48;;;;;;;4.60;3.07;;;10.70;99.90;;;;;;5080244;28;20546;-73
2023/01/05 08:20:15;;;;;;;16.87;4.30;;;10.70;99.90;;;;;;5081833;28;20429;-73
2023/01/05 08:22:43;;;;;;;8.50;3.40;;;10.80;99.90;;;;;;5089005;28;20443;-74
2023/01/05 08:25:10;;;;;;;17.50;4.47;;;10.80;99.90;;;;;;5086720;28;20575;-73
2023/01/05 08:27:37;;;;;;;10.10;4.37;;;10.80;99.90;;;;;;5097201;28;20486;-74
2023/01/05 08:30:05;;;;;;;5.07;3.30;;;10.80;99.90;;;;;;5094980;28;20470;-75
2023/01/05 08:32:32;;;;;;;23.10;7.57;;;10.90;99.90;;;;;;5091553;28;20466;-74
2023/01/05 08:34:59;;;;;;;7.10;4.27;;;10.90;99.90;;;;;;5082916;28;20434;-73
2023/01/05 08:37:26;;;;;;;14.03;4.80;;;11.00;99.90;;;;;;5089533;28;20566;-73
2023/01/05 08:39:55;;;;;;;10.27;4.77;;;11.00;99.90;;;;;;5080295;28;20531;-73
2023/01/05 08:42:22;;;;;;;11.90;6.00;;;11.00;99.90;;;;;;5077741;28;20479;-73
2023/01/05 08:44:50;;;;;;;40.07;5.30;;;11.00;99.90;;;;;;5086548;28;20475;-73
2023/01/05 08:47:17;;;;;;;18.93;4.87;;;11.00;99.90;;;;;;5084620;28;20529;-73
2023/01/05 08:49:44;;;;;;;17.27;5.20;;;11.00;99.90;;;;;;5085054;28;20502;-73
2023/01/05 08:52:11;;;;;;;3.93;2.57;;;10.90;99.90;;;;;;5094708;28;20454;-72
2023/01/05 08:54:38;;;;;;;16.73;4.47;;;11.00;99.90;;;;;;5086205;28;20548;-74
2023/01/05 08:57:06;;;;;;;14.33;3.87;;;11.00;99.90;;;;;;5079016;28;20490;-74
2023/01/05 08:59:33;;;;;;;11.83;4.13;;;11.10;99.90;;;;;;5088707;28;20547;-74
2023/01/05 09:02:00;;;;;;;15.07;4.23;;;11.20;99.90;;;;;;5053064;28;20459;-74
2023/01/05 09:04:27;;;;;;;8.93;4.67;;;11.20;99.90;;;;;;5089504;28;21021;-74
2023/01/05 09:06:56;;;;;;;11.80;3.67;;;11.20;99.90;;;;;;5085018;28;20462;-74
2023/01/05 09:09:24;;;;;;;12.63;5.80;;;11.20;99.90;;;;;;5081819;28;20915;-74
2023/01/05 09:11:51;;;;;;;10.10;3.27;;;11.10;99.90;;;;;;5088097;28;20576;-74
2023/01/05 09:14:19;;;;;;;18.53;4.13;;;11.10;99.90;;;;;;5082525;28;20537;-74
2023/01/05 09:16:46;;;;;;;6.37;3.13;;;11.10;99.90;;;;;;5079574;28;20470;-74
2023/01/05 09:19:14;;;;;;;19.17;3.83;;;11.10;99.90;;;;;;5064815;28;21041;-74
2023/01/05 09:21:41;;;;;;;12.27;4.30;;;11.10;99.90;;;;;;5086858;28;20445;-74
2023/01/05 09:24:11;;;;;;;17.50;5.77;;;11.10;99.90;;;;;;5084777;28;20881;-74
2023/01/05 09:26:39;;;;;;;7.23;3.03;;;11.20;99.90;;;;;;5092822;28;20479;-73
2023/01/05 09:29:06;;;;;;;13.23;3.73;;;11.20;99.90;;;;;;5088814;28;20455;-74
2023/01/05 09:31:34;;;;;;;8.30;3.63;;;11.20;99.90;;;;;;5089314;28;20529;-74
2023/01/05 09:34:01;;;;;;;8.80;3.20;;;11.30;99.90;;;;;;5090395;28;20555;-74
2023/01/05 09:36:28;;;;;;;15.03;4.17;;;11.30;99.90;;;;;;5075574;28;20461;-73
2023/01/05 09:38:56;;;;;;;8.10;4.23;;;11.30;99.90;;;;;;5079844;28;20541;-73
2023/01/05 09:41:27;;;;;;;8.33;3.40;;;11.30;99.90;;;;;;5072909;28;21179;-74
2023/01/05 09:43:57;;;;;;;13.10;4.40;;;11.30;99.90;;;;;;5078423;28;20889;-74
2023/01/05 09:46:29;;;;;;;16.03;4.30;;;11.30;99.90;;;;;;5080919;28;21001;-73
2023/01/05 09:49:00;;;;;;;11.60;3.90;;;11.40;99.90;;;;;;5086842;28;20571;-74
2023/01/05 09:51:29;;;;;;;12.87;3.13;;;11.40;99.90;;;;;;5080870;28;20467;-74
2023/01/05 09:53:56;;;;;;;15.13;6.93;;;11.40;99.90;;;;;;5083488;28;21037;-75
2023/01/05 09:56:28;;;;;;;21.47;6.07;;;11.30;99.90;;;;;;5084883;28;20456;-73
2023/01/05 09:59:04;;;;;;;9.80;3.40;;;11.40;99.90;;;;;;5083594;28;20540;-74
2023/01/05 10:01:33;;;;;;;9.13;3.83;;;11.50;99.90;;;;;;5085149;28;20460;-74
2023/01/05 10:04:03;;;;;;;6.50;3.63;;;11.60;99.90;;;;;;5080833;28;20462;-74
2023/01/05 10:06:33;;;;;;;8.40;4.00;;;11.50;99.90;;;;;;5042899;28;20505;-74
2023/01/05 10:09:02;;;;;;;6.80;3.30;;;11.50;99.90;;;;;;5062908;28;20530;-74
2023/01/05 10:14:29;;;;;;;27.03;3.37;;;11.50;99.90;;;;;;5083762;28;21172;-74
2023/01/05 10:16:56;;;;;;;15.23;3.50;;;11.50;99.90;;;;;;5091879;28;20448;-74
2023/01/05 10:19:25;;;;;;;4.70;3.23;;;11.60;99.90;;;;;;5083405;28;20948;-73
2023/01/05 10:22:05;;;;;;;9.90;4.30;;;11.70;99.90;;;;;;5048387;28;20464;-74
2023/01/05 10:24:43;;;;;;;13.10;3.63;;;11.60;99.90;;;;;;5094957;28;20419;-73
2023/01/05 10:27:17;;;;;;;7.70;2.90;;;11.60;99.90;;;;;;5098821;28;20456;-73
2023/01/05 10:29:46;;;;;;;15.60;3.57;;;11.60;99.90;;;;;;5079882;28;20951;-74
2023/01/05 10:32:24;;;;;;;15.23;4.73;;;11.80;99.90;;;;;;5091759;28;20557;-74
2023/01/05 10:34:58;;;;;;;24.97;3.53;;;11.90;99.90;;;;;;5091000;28;20540;-76
2023/01/05 10:37:51;;;;;;;18.10;3.80;;;11.90;99.90;;;;;;5092432;28;20553;-74
2023/01/05 10:40:30;;;;;;;10.93;2.40;;;11.90;99.90;;;;;;5085536;28;20563;-75
2023/01/05 10:43:24;;;;;;;10.60;6.10;;;11.80;99.90;;;;;;5089694;28;20511;-74
2023/01/05 10:45:51;;;;;;;10.30;3.33;;;11.80;99.90;;;;;;5092486;28;20485;-74
2023/01/05 10:48:26;;;;;;;9.77;3.87;;;11.90;99.90;;;;;;5092530;28;20541;-75
2023/01/05 10:50:56;;;;;;;13.33;4.23;;;12.00;99.90;;;;;;5092334;28;20487;-74
2023/01/05 10:53:25;;;;;;;10.17;3.93;;;12.00;99.90;;;;;;5098686;28;20903;-74
2023/01/05 10:56:02;;;;;;;6.23;2.57;;;12.00;99.90;;;;;;5092982;28;20746;-74
2023/01/05 10:58:31;;;;;;;7.90;3.43;;;12.20;99.90;;;;;;5088230;28;20491;-74
2023/01/05 11:01:01;;;;;;;16.80;3.07;;;12.20;99.90;;;;;;5093799;28;20546;-74
2023/01/05 11:03:35;;;;;;;5.20;3.27;;;12.20;99.90;;;;;;5096263;28;20495;-74
2023/01/05 11:06:05;;;;;;;16.00;4.40;;;12.20;99.90;;;;;;5086509;28;20840;-74
2023/01/05 11:08:34;;;;;;;4.10;2.43;;;12.30;99.90;;;;;;5086237;28;20618;-74
2023/01/05 11:11:03;;;;;;;4.43;2.40;;;12.30;99.90;;;;;;5093803;28;20464;-74
2023/01/05 11:13:33;;;;;;;12.23;3.40;;;12.30;99.90;;;;;;5093481;28;20524;-74
2023/01/05 11:16:07;;;;;;;17.33;3.07;;;12.40;99.90;;;;;;5083818;28;20471;-74
2023/01/05 11:18:39;;;;;;;13.87;3.40;;;12.30;99.90;;;;;;5087187;28;21038;-74
2023/01/05 11:21:13;;;;;;;4.90;3.53;;;12.10;99.90;;;;;;5088638;28;20456;-74
2023/01/05 11:23:43;;;;;;;6.87;1.93;;;12.20;99.90;;;;;;5078407;28;20529;-73
2023/01/05 11:26:25;;;;;;;6.70;2.97;;;12.40;99.90;;;;;;5089794;28;21000;-74
2023/01/05 11:29:05;;;;;;;6.50;3.93;;;12.50;99.90;;;;;;5093729;28;20476;-74
2023/01/05 11:31:36;;;;;;;11.37;4.10;;;12.60;99.90;;;;;;5078357;28;20459;-74
2023/01/05 11:34:09;;;;;;;7.13;3.83;;;12.50;99.90;;;;;;5084180;28;20533;-74
2023/01/05 11:36:38;;;;;;;6.30;2.90;;;12.40;99.90;;;;;;5085129;28;20426;-75
2023/01/05 11:39:06;;;;;;;9.03;3.47;;;12.50;99.90;;;;;;5087952;28;20501;-74
2023/01/05 11:41:36;;;;;;;31.70;4.60;;;12.40;99.90;;;;;;5095648;28;20991;-74
2023/01/05 11:44:04;;;;;;;16.83;3.63;;;12.30;99.90;;;;;;5086123;28;20852;-74
2023/01/05 11:46:53;;;;;;;15.10;4.67;;;12.40;99.90;;;;;;5085020;28;20487;-75
2023/01/05 11:49:20;;;;;;;7.77;4.00;;;12.40;99.90;;;;;;5090476;28;20459;-73
2023/01/05 11:51:48;;;;;;;13.80;3.93;;;12.40;99.90;;;;;;5093237;28;20514;-74
2023/01/05 11:54:35;;;;;;;16.53;4.30;;;12.50;99.90;;;;;;5091064;28;20457;-73
2023/01/05 11:57:17;;;;;;;8.33;4.73;;;12.50;99.90;;;;;;5088132;28;20456;-74
2023/01/05 11:59:46;;;;;;;17.60;3.93;;;12.40;99.90;;;;;;5085742;28;20492;-73
2023/01/05 12:02:43;;;;;;;6.30;3.93;;;12.60;99.90;;;;;;5087499;28;20536;-73
2023/01/05 12:05:40;;;;;;;8.90;3.40;;;12.60;99.90;;;;;;5086429;28;20831;-74
2023/01/05 12:08:15;;;;;;;2.90;2.33;;;12.70;99.90;;;;;;5075694;28;20480;-73
2023/01/05 12:10:54;;;;;;;8.63;3.33;;;12.60;99.90;;;;;;5076466;28;20462;-73
2023/01/05 12:13:42;;;;;;;10.50;3.40;;;12.50;99.90;;;;;;5079079;28;20456;-73
2023/01/05 12:16:18;;;;;;;11.77;3.93;;;12.40;99.90;;;;;;5086137;28;20604;-73
2023/01/05 12:19:20;;;;;;;8.03;3.33;;;12.50;99.90;;;;;;5090534;28;20654;-74
2023/01/05 12:22:00;;;;;;;4.70;3.00;;;12.70;99.90;;;;;;5068641;28;20443;-74
2023/01/05 12:24:44;;;;;;;9.90;4.07;;;12.70;99.90;;;;;;5087321;28;20469;-74
2023/01/05 12:27:26;;;;;;;8.57;4.30;;;12.60;99.90;;;;;;5097752;28;20481;-74
2023/01/05 12:30:20;;;;;;;7.20;2.70;;;12.60;99.90;;;;;;5064613;28;20478;-74
2023/01/05 12:33:03;;;;;;;8.30;3.67;;;12.50;99.90;;;;;;5085379;28;20773;-74
2023/01/05 12:35:54;;;;;;;14.00;4.40;;;12.50;99.90;;;;;;5081776;28;20513;-72
2023/01/05 12:38:45;;;;;;;9.53;2.80;;;12.70;99.90;;;;;;5062375;28;20568;-73
2023/01/05 12:41:35;;;;;;;9.33;2.73;;;12.70;99.90;;;;;;5074993;28;21559;-74
2023/01/05 12:44:30;;;;;;;10.17;3.03;;;12.70;99.90;;;;;;5082217;28;20448;-72
2023/01/05 12:47:11;;;;;;;12.73;3.00;;;12.70;99.90;;;;;;5088112;28;20504;-73
2023/01/05 12:49:42;;;;;;;11.33;3.63;;;12.70;99.90;;;;;;5093593;28;20798;-74
2023/01/05 12:52:15;;;;;;;8.60;3.93;;;12.80;99.90;;;;;;5093678;28;20448;-73
2023/01/05 12:54:50;;;;;;;7.63;1.83;;;12.70;99.90;;;;;;5093373;28;21211;-72
2023/01/05 12:57:26;;;;;;;11.53;4.00;;;12.50;99.90;;;;;;5090513;28;20484;-73
2023/01/05 12:59:57;;;;;;;23.03;3.60;;;12.40;99.90;;;;;;5091968;28;20953;-74
2023/01/05 13:02:32;;;;;;;10.93;3.37;;;12.50;99.90;;;;;;5102317;28;20493;-74
2023/01/05 13:05:04;;;;;;;10.03;3.53;;;12.50;99.90;;;;;;5098832;28;20684;-74
2023/01/05 13:07:38;;;;;;;10.37;4.57;;;12.70;99.90;;;;;;5101426;28;20482;-74
2023/01/05 13:10:14;;;;;;;11.73;3.20;;;12.70;99.90;;;;;;5091319;28;20493;-73
2023/01/05 13:12:43;;;;;;;10.53;3.27;;;12.70;99.90;;;;;;5106099;28;20543;-73
2023/01/05 13:15:18;;;;;;;9.57;3.03;;;12.70;99.90;;;;;;5089144;28;20518;-73
2023/01/05 13:17:49;;;;;;;7.77;3.40;;;12.90;99.90;;;;;;5052586;28;20790;-73
2023/01/05 13:20:28;;;;;;;5.70;2.77;;;12.70;99.90;;;;;;5093235;28;20835;-74
2023/01/05 13:23:02;;;;;;;3.10;2.40;;;12.70;99.90;;;;;;5096253;28;20410;-74
2023/01/05 13:25:36;;;;;;;6.80;2.83;;;12.70;99.90;;;;;;5094930;28;20428;-73
2023/01/05 13:28:05;;;;;;;3.13;2.30;;;12.70;99.90;;;;;;5105631;28;20622;-73
2023/01/05 13:30:38;;;;;;;12.97;3.60;;;12.60;99.90;;;;;;5097798;28;20422;-73
2023/01/05 13:33:23;;;;;;;8.70;3.03;;;12.70;99.90;;;;;;5095946;28;20417;-74
2023/01/05 13:36:03;;;;;;;6.93;2.97;;;12.70;99.90;;;;;;5091385;28;20539;-74